Řízení letového provozu České republiky
Letiste: LKNA Aktualizace: 23.08.2017 07:06:03  UTC
 METAR LKNA 23.08. 07:00 ...
METAR LKNA 230700Z 32005KT CAVOK 12/07 Q1020 NOSIG=
 TAF LKNA 23.08. 05:00 ...
TAF LKNA 230500Z 2306/2406 32006KT CAVOK      TEMPO 2310/2314 9999 SCT040      BECMG 2317/2319 36006KT      BECMG 2323/2401 VRB02KT=